createdAt,value
2022-09-10T00:00:06.754Z,17.90
2022-09-10T00:00:18.703Z,17.90
2022-09-10T00:00:31.254Z,17.90
2022-09-10T00:00:43.901Z,17.90
2022-09-10T00:00:55.867Z,17.90
2022-09-10T00:01:07.561Z,17.90
2022-09-10T00:01:22.076Z,17.90
2022-09-10T00:01:34.606Z,17.90
2022-09-10T00:01:46.360Z,17.90
2022-09-10T00:01:59.514Z,17.90
2022-09-10T00:02:11.443Z,17.90
2022-09-10T00:02:23.170Z,17.90
2022-09-10T00:02:34.893Z,17.90
2022-09-10T00:02:46.659Z,17.90
2022-09-10T00:02:58.500Z,17.90
2022-09-10T00:03:10.845Z,17.90
2022-09-10T00:03:23.381Z,17.90
2022-09-10T00:03:35.170Z,17.90
2022-09-10T00:03:48.725Z,17.80
2022-09-10T00:04:01.401Z,17.80
2022-09-10T00:04:14.761Z,17.80
2022-09-10T00:04:26.832Z,17.80
2022-09-10T00:04:38.533Z,17.80
2022-09-10T00:04:50.394Z,17.80
2022-09-10T00:05:02.518Z,17.80
2022-09-10T00:05:14.301Z,17.70
2022-09-10T00:05:25.981Z,17.70
2022-09-10T00:05:41.695Z,17.80
2022-09-10T00:05:53.446Z,17.70
2022-09-10T00:06:06.151Z,17.70
2022-09-10T00:06:20.828Z,17.70
2022-09-10T00:06:34.352Z,17.70
2022-09-10T00:06:46.129Z,17.70
2022-09-10T00:06:57.888Z,17.70
2022-09-10T00:07:09.841Z,17.70
2022-09-10T00:07:21.573Z,17.70
2022-09-10T00:07:33.340Z,17.70
2022-09-10T00:07:45.060Z,17.70
2022-09-10T00:07:56.762Z,17.70
2022-09-10T00:08:08.707Z,17.70
2022-09-10T00:08:20.635Z,17.70
2022-09-10T00:08:34.310Z,17.70
2022-09-10T00:08:46.507Z,17.70
2022-09-10T00:08:58.657Z,17.70
2022-09-10T00:09:11.213Z,17.70
2022-09-10T00:09:22.988Z,17.70
2022-09-10T00:09:35.017Z,17.70
2022-09-10T00:09:46.687Z,17.70
2022-09-10T00:09:58.538Z,17.70
2022-09-10T00:10:10.495Z,17.70
2022-09-10T00:10:22.521Z,17.70
2022-09-10T00:10:41.024Z,17.70
2022-09-10T00:10:52.753Z,17.70
2022-09-10T00:11:06.190Z,17.70
2022-09-10T00:11:18.536Z,17.70
2022-09-10T00:11:31.940Z,17.70
2022-09-10T00:11:44.582Z,17.70
2022-09-10T00:11:56.645Z,17.70
2022-09-10T00:12:08.361Z,17.70
2022-09-10T00:12:20.549Z,17.70
2022-09-10T00:12:32.246Z,17.70
2022-09-10T00:12:43.957Z,17.70
2022-09-10T00:12:55.840Z,17.70
2022-09-10T00:13:07.652Z,17.70
2022-09-10T00:13:20.978Z,17.70
2022-09-10T00:13:34.014Z,17.70
2022-09-10T00:13:45.725Z,17.70
2022-09-10T00:14:04.281Z,17.70
2022-09-10T00:14:18.853Z,17.70
2022-09-10T00:14:30.562Z,17.70
2022-09-10T00:14:42.283Z,17.70
2022-09-10T00:14:54.340Z,17.70
2022-09-10T00:15:06.425Z,17.70
2022-09-10T00:15:19.431Z,17.70
2022-09-10T00:15:31.129Z,17.70
2022-09-10T00:15:47.435Z,17.70
2022-09-10T00:15:59.354Z,17.70
2022-09-10T00:16:12.881Z,17.70
2022-09-10T00:16:24.856Z,17.70
2022-09-10T00:16:36.689Z,17.70
2022-09-10T00:16:49.493Z,17.70
2022-09-10T00:17:01.693Z,17.70
2022-09-10T00:17:13.360Z,17.70
2022-09-10T00:17:25.065Z,17.70
2022-09-10T00:17:38.849Z,17.80
2022-09-10T00:17:50.539Z,17.70
2022-09-10T00:18:03.083Z,17.80
2022-09-10T00:18:15.435Z,17.70
2022-09-10T00:18:27.106Z,17.80
2022-09-10T00:18:39.597Z,17.70
2022-09-10T00:18:51.690Z,17.80
2022-09-10T00:19:03.470Z,17.80
2022-09-10T00:19:15.410Z,17.80
2022-09-10T00:19:28.114Z,17.80
2022-09-10T00:19:39.812Z,17.80
2022-09-10T00:19:51.524Z,17.80
2022-09-10T00:20:03.704Z,17.80
2022-09-10T00:20:15.366Z,17.70
2022-09-10T00:20:27.253Z,17.70
2022-09-10T00:20:49.233Z,17.80
2022-09-10T00:21:02.195Z,17.80
2022-09-10T00:21:15.862Z,17.70
2022-09-10T00:21:27.694Z,17.70
2022-09-10T00:21:39.384Z,17.80
2022-09-10T00:21:51.095Z,17.70
2022-09-10T00:22:02.885Z,17.70
2022-09-10T00:22:14.590Z,17.70
2022-09-10T00:22:26.472Z,17.70
2022-09-10T00:22:38.154Z,17.70
2022-09-10T00:22:50.673Z,17.70
2022-09-10T00:23:03.094Z,17.80
2022-09-10T00:23:15.888Z,17.80
2022-09-10T00:23:28.734Z,17.80
2022-09-10T00:23:40.664Z,17.70
2022-09-10T00:23:52.416Z,17.80
2022-09-10T00:24:05.212Z,17.70
2022-09-10T00:24:17.250Z,17.70
2022-09-10T00:24:28.939Z,17.70
2022-09-10T00:24:41.306Z,17.80
2022-09-10T00:24:57.558Z,17.80
2022-09-10T00:25:09.440Z,17.70
2022-09-10T00:25:21.119Z,17.80
2022-09-10T00:25:32.908Z,17.80
2022-09-10T00:25:45.669Z,17.80
2022-09-10T00:25:57.884Z,17.70
2022-09-10T00:26:23.750Z,17.80
2022-09-10T00:26:38.271Z,17.70
2022-09-10T00:26:50.015Z,17.80
2022-09-10T00:27:01.715Z,17.70
2022-09-10T00:27:13.446Z,17.70
2022-09-10T00:27:26.092Z,17.80
2022-09-10T00:27:37.780Z,17.80
2022-09-10T00:27:49.439Z,17.80
2022-09-10T00:28:02.114Z,17.80
2022-09-10T00:28:13.873Z,17.80
2022-09-10T00:28:27.089Z,17.80
2022-09-10T00:28:39.095Z,17.80
2022-09-10T00:28:51.927Z,17.70
2022-09-10T00:29:03.794Z,17.80
2022-09-10T00:29:18.427Z,17.80
2022-09-10T00:29:31.083Z,17.80
2022-09-10T00:29:42.774Z,17.80
2022-09-10T00:29:54.537Z,17.80
2022-09-10T00:30:06.992Z,17.80
2022-09-10T00:30:18.784Z,17.80
2022-09-10T00:30:30.474Z,17.80
2022-09-10T00:30:46.592Z,17.80
2022-09-10T00:30:58.395Z,17.80
2022-09-10T00:31:10.823Z,17.80
2022-09-10T00:31:23.387Z,17.80
2022-09-10T00:31:35.294Z,17.80
2022-09-10T00:31:47.140Z,17.80
2022-09-10T00:31:59.073Z,17.80
2022-09-10T00:32:10.798Z,17.80
2022-09-10T00:32:22.513Z,17.80
2022-09-10T00:32:34.798Z,17.80
2022-09-10T00:32:52.511Z,17.80
2022-09-10T00:33:04.305Z,17.80
2022-09-10T00:33:16.804Z,17.80
2022-09-10T00:33:29.974Z,17.80
2022-09-10T00:33:42.373Z,17.80
2022-09-10T00:33:54.837Z,17.80
2022-09-10T00:34:07.070Z,17.80
2022-09-10T00:34:18.846Z,17.80
2022-09-10T00:34:30.534Z,17.80
2022-09-10T00:34:42.236Z,17.80
2022-09-10T00:34:55.088Z,17.80
2022-09-10T00:35:08.173Z,17.80
2022-09-10T00:35:20.126Z,17.80
2022-09-10T00:35:33.184Z,17.80
2022-09-10T00:35:45.170Z,17.80
2022-09-10T00:35:59.540Z,17.80
2022-09-10T00:36:20.297Z,17.80
2022-09-10T00:36:35.902Z,17.80
2022-09-10T00:36:47.654Z,17.80
2022-09-10T00:36:59.422Z,17.80
2022-09-10T00:37:11.090Z,17.90
2022-09-10T00:37:22.742Z,17.90
2022-09-10T00:37:34.593Z,17.90
2022-09-10T00:37:46.717Z,17.90
2022-09-10T00:37:58.555Z,17.80
2022-09-10T00:38:10.621Z,17.80
2022-09-10T00:38:22.501Z,17.80
2022-09-10T00:38:34.338Z,17.80
2022-09-10T00:38:46.661Z,17.80
2022-09-10T00:38:59.926Z,17.80
2022-09-10T00:39:13.635Z,17.80
2022-09-10T00:39:25.370Z,17.80
2022-09-10T00:39:37.152Z,17.80
2022-09-10T00:39:48.964Z,17.80
2022-09-10T00:40:01.990Z,17.80
2022-09-10T00:40:14.875Z,17.80
2022-09-10T00:40:26.677Z,17.80
2022-09-10T00:40:38.731Z,17.80
2022-09-10T00:40:50.477Z,17.80
2022-09-10T00:41:04.749Z,17.80
2022-09-10T00:41:16.613Z,17.80
2022-09-10T00:41:28.587Z,17.80
2022-09-10T00:41:40.980Z,17.90
2022-09-10T00:41:54.090Z,17.90
2022-09-10T00:42:05.971Z,17.80
2022-09-10T00:42:18.586Z,17.90
2022-09-10T00:42:30.571Z,17.90
2022-09-10T00:42:45.354Z,17.90
2022-09-10T00:42:57.346Z,17.90
2022-09-10T00:43:16.621Z,17.90
2022-09-10T00:43:30.928Z,17.90
2022-09-10T00:43:57.939Z,17.90
2022-09-10T00:44:37.395Z,17.80
2022-09-10T00:44:58.167Z,17.90
2022-09-10T00:45:24.076Z,17.80
2022-09-10T00:45:35.948Z,17.80
2022-09-10T00:45:49.987Z,17.80
2022-09-10T00:46:03.895Z,17.80
2022-09-10T00:46:34.175Z,17.90
2022-09-10T00:46:50.186Z,17.90
2022-09-10T00:47:01.867Z,17.90
2022-09-10T00:47:34.045Z,17.90
2022-09-10T00:47:47.642Z,17.80
2022-09-10T00:48:04.419Z,17.90
2022-09-10T00:48:27.668Z,17.90
2022-09-10T00:48:39.511Z,17.90
2022-09-10T00:48:52.741Z,17.80
2022-09-10T00:49:10.097Z,17.80
2022-09-10T00:49:33.668Z,17.80
2022-09-10T00:49:48.001Z,17.80
2022-09-10T00:50:28.568Z,17.80
2022-09-10T00:50:41.366Z,17.80
2022-09-10T00:50:53.213Z,17.80
2022-09-10T00:51:05.059Z,17.80
2022-09-10T00:51:16.798Z,17.80
2022-09-10T00:51:30.977Z,17.80
2022-09-10T00:51:42.753Z,17.80
2022-09-10T00:51:54.504Z,17.80
2022-09-10T00:52:06.156Z,17.80
2022-09-10T00:52:17.998Z,17.80
2022-09-10T00:52:29.726Z,17.80
2022-09-10T00:52:41.477Z,17.80
2022-09-10T00:52:55.331Z,17.80
2022-09-10T00:53:08.937Z,17.80
2022-09-10T00:53:26.510Z,17.80
2022-09-10T00:53:38.192Z,17.80
2022-09-10T00:53:50.899Z,17.80
2022-09-10T00:54:03.060Z,17.80
2022-09-10T00:54:15.178Z,17.80
2022-09-10T00:54:26.845Z,17.90
2022-09-10T00:54:38.757Z,17.80
2022-09-10T00:54:50.563Z,17.90
2022-09-10T00:55:02.540Z,17.90
2022-09-10T00:55:14.392Z,17.90
2022-09-10T00:55:26.065Z,17.90
2022-09-10T00:55:38.334Z,17.90
2022-09-10T00:55:51.181Z,17.90
2022-09-10T00:56:04.504Z,17.80
2022-09-10T00:56:16.275Z,17.80
2022-09-10T00:56:28.382Z,17.80
2022-09-10T00:56:40.073Z,17.80
2022-09-10T00:56:52.754Z,17.80
2022-09-10T00:57:08.080Z,17.80
2022-09-10T00:57:21.967Z,17.80
2022-09-10T00:57:33.645Z,17.80
2022-09-10T00:57:46.181Z,17.80
2022-09-10T00:58:00.230Z,17.80
2022-09-10T00:58:12.698Z,17.80
2022-09-10T00:58:24.512Z,17.80
2022-09-10T00:58:36.259Z,17.80
2022-09-10T00:58:48.538Z,17.80
2022-09-10T00:59:01.086Z,17.80
2022-09-10T00:59:13.961Z,17.80
2022-09-10T00:59:26.500Z,17.80
2022-09-10T00:59:40.158Z,17.80
2022-09-10T00:59:54.753Z,17.80
2022-09-10T01:00:09.902Z,17.70
2022-09-10T01:00:21.796Z,17.70
2022-09-10T01:00:33.571Z,17.70
2022-09-10T01:00:45.637Z,17.70
2022-09-10T01:01:01.275Z,17.70
2022-09-10T01:01:13.518Z,17.70
2022-09-10T01:01:25.269Z,17.80
2022-09-10T01:01:37.011Z,17.70
2022-09-10T01:01:49.379Z,17.70
2022-09-10T01:02:02.613Z,17.70
2022-09-10T01:02:15.060Z,17.70
2022-09-10T01:02:26.838Z,17.70
2022-09-10T01:02:38.504Z,17.70
2022-09-10T01:02:50.378Z,17.70
2022-09-10T01:03:02.180Z,17.70
2022-09-10T01:03:15.838Z,17.70
2022-09-10T01:03:31.415Z,17.70
2022-09-10T01:03:43.751Z,17.70
2022-09-10T01:03:55.524Z,17.70
2022-09-10T01:04:07.375Z,17.70
2022-09-10T01:04:19.119Z,17.70
2022-09-10T01:04:32.406Z,17.70
2022-09-10T01:04:44.095Z,17.70
2022-09-10T01:04:55.957Z,17.70
2022-09-10T01:05:09.142Z,17.70
2022-09-10T01:05:20.952Z,17.70
2022-09-10T01:05:34.159Z,17.70
2022-09-10T01:05:46.121Z,17.70
2022-09-10T01:05:58.328Z,17.70
2022-09-10T01:06:10.629Z,17.70
2022-09-10T01:06:22.387Z,17.70
2022-09-10T01:06:34.099Z,17.70
2022-09-10T01:06:45.773Z,17.70
2022-09-10T01:06:58.535Z,17.70
2022-09-10T01:07:10.901Z,17.70
2022-09-10T01:07:23.000Z,17.70
2022-09-10T01:07:34.812Z,17.70
2022-09-10T01:07:48.108Z,17.70
2022-09-10T01:08:00.024Z,17.70
2022-09-10T01:08:18.035Z,17.70
2022-09-10T01:08:29.796Z,17.70
2022-09-10T01:08:41.543Z,17.70
2022-09-10T01:08:53.233Z,17.70
2022-09-10T01:09:04.941Z,17.70
2022-09-10T01:09:17.669Z,17.70
2022-09-10T01:09:29.334Z,17.70
2022-09-10T01:09:41.093Z,17.70
2022-09-10T01:09:52.795Z,17.70
2022-09-10T01:10:13.506Z,17.70
2022-09-10T01:10:28.820Z,17.70
2022-09-10T01:10:50.661Z,17.70
2022-09-10T01:11:34.904Z,17.70
2022-09-10T01:11:53.200Z,17.70
2022-09-10T01:12:35.672Z,17.80
2022-09-10T01:12:50.422Z,17.80
2022-09-10T01:13:28.913Z,17.80
2022-09-10T01:13:46.282Z,17.80
2022-09-10T01:14:16.581Z,17.80
2022-09-10T01:14:33.184Z,17.80
2022-09-10T01:15:02.596Z,17.80
2022-09-10T01:15:41.063Z,17.80
2022-09-10T01:16:09.256Z,17.80
2022-09-10T01:16:34.174Z,17.80
2022-09-10T01:17:09.995Z,17.80
2022-09-10T01:17:21.772Z,17.80
2022-09-10T01:17:35.287Z,17.80
2022-09-10T01:18:03.376Z,17.80
2022-09-10T01:18:19.194Z,17.80
2022-09-10T01:18:38.013Z,17.80
2022-09-10T01:19:10.040Z,17.80
2022-09-10T01:19:41.174Z,17.70
2022-09-10T01:20:24.910Z,17.80
2022-09-10T01:20:56.567Z,17.70
2022-09-10T01:21:21.824Z,17.70
2022-09-10T01:21:36.381Z,17.70
2022-09-10T01:22:03.890Z,17.70
2022-09-10T01:22:57.550Z,17.70
2022-09-10T01:23:31.333Z,17.70
2022-09-10T01:24:00.092Z,17.70
2022-09-10T01:24:54.978Z,17.70
2022-09-10T01:25:33.576Z,17.70
2022-09-10T01:26:07.273Z,17.70
2022-09-10T01:26:28.563Z,17.60
2022-09-10T01:26:52.418Z,17.60
2022-09-10T01:27:48.398Z,17.60
2022-09-10T01:28:00.126Z,17.70
2022-09-10T01:28:24.544Z,17.70
2022-09-10T01:29:01.014Z,17.70
2022-09-10T01:29:15.268Z,17.70
2022-09-10T01:30:09.460Z,17.70
2022-09-10T01:30:23.243Z,17.70
2022-09-10T01:30:37.258Z,17.70
2022-09-10T01:30:51.617Z,17.70
2022-09-10T01:31:10.618Z,17.70
2022-09-10T01:31:32.898Z,17.70
2022-09-10T01:31:51.457Z,17.70
2022-09-10T01:32:15.429Z,17.70
2022-09-10T01:32:29.796Z,17.70
2022-09-10T01:33:54.793Z,17.70
2022-09-10T01:34:10.431Z,17.70
2022-09-10T01:34:29.668Z,17.70
2022-09-10T01:34:51.334Z,17.70
2022-09-10T01:35:15.546Z,17.70
2022-09-10T01:35:41.499Z,17.70
2022-09-10T01:35:55.313Z,17.70
2022-09-10T01:36:09.815Z,17.70
2022-09-10T01:36:25.129Z,17.70
2022-09-10T01:36:39.066Z,17.70
2022-09-10T01:36:51.924Z,17.70
2022-09-10T01:37:08.575Z,17.70
2022-09-10T01:37:22.690Z,17.70
2022-09-10T01:37:35.485Z,17.70
2022-09-10T01:37:54.498Z,17.70
2022-09-10T01:38:09.610Z,17.70
2022-09-10T01:38:31.761Z,17.70
2022-09-10T01:38:43.592Z,17.70
2022-09-10T01:38:55.522Z,17.70
2022-09-10T01:39:07.287Z,17.70
2022-09-10T01:39:19.257Z,17.70
2022-09-10T01:39:30.927Z,17.70
2022-09-10T01:39:42.656Z,17.70
2022-09-10T01:39:54.479Z,17.60
2022-09-10T01:40:06.838Z,17.60
2022-09-10T01:40:18.585Z,17.70
2022-09-10T01:40:30.950Z,17.60
2022-09-10T01:40:43.220Z,17.60
2022-09-10T01:40:54.980Z,17.60
2022-09-10T01:41:06.959Z,17.60
2022-09-10T01:41:21.225Z,17.60
2022-09-10T01:41:32.901Z,17.60
2022-09-10T01:41:44.653Z,17.60
2022-09-10T01:41:56.342Z,17.60
2022-09-10T01:42:08.107Z,17.60
2022-09-10T01:42:19.772Z,17.60
2022-09-10T01:42:31.868Z,17.60
2022-09-10T01:42:43.591Z,17.60
2022-09-10T01:43:02.944Z,17.60
2022-09-10T01:43:14.927Z,17.60
2022-09-10T01:43:26.691Z,17.60
2022-09-10T01:43:38.432Z,17.60
2022-09-10T01:43:50.202Z,17.60
2022-09-10T01:44:11.474Z,17.60
2022-09-10T01:44:42.997Z,17.60
2022-09-10T01:44:55.515Z,17.60
2022-09-10T01:45:09.816Z,17.60
2022-09-10T01:45:21.697Z,17.60
2022-09-10T02:04:12.373Z,17.50
2022-09-10T02:04:25.222Z,17.50
2022-09-10T02:04:37.056Z,17.50
2022-09-10T02:04:50.814Z,17.50
2022-09-10T02:05:03.858Z,17.50
2022-09-10T02:05:17.783Z,17.50
2022-09-10T02:05:30.900Z,17.50
2022-09-10T02:05:43.671Z,17.50
2022-09-10T02:05:56.000Z,17.50
2022-09-10T02:06:09.938Z,17.50
2022-09-10T02:06:22.804Z,17.50
2022-09-10T02:06:36.675Z,17.50
2022-09-10T02:07:14.456Z,17.40
2022-09-10T02:07:27.201Z,17.50
2022-09-10T02:07:40.375Z,17.50
2022-09-10T02:07:54.634Z,17.50
2022-09-10T02:08:12.750Z,17.50
2022-09-10T02:08:27.918Z,17.50
2022-09-10T02:08:41.016Z,17.50
2022-09-10T02:08:53.228Z,17.50
2022-09-10T02:09:05.368Z,17.50
2022-09-10T02:09:43.106Z,17.50
2022-09-10T02:09:55.273Z,17.50
2022-09-10T02:10:34.849Z,17.50
2022-09-10T02:11:26.054Z,17.60
2022-09-10T02:11:51.511Z,17.60
2022-09-10T02:13:08.061Z,17.60
2022-09-10T02:13:20.360Z,17.60
2022-09-10T02:13:32.724Z,17.60
2022-09-10T02:13:44.379Z,17.60
2022-09-10T02:13:56.532Z,17.60
2022-09-10T02:14:08.504Z,17.60
2022-09-10T02:14:21.933Z,17.60
2022-09-10T02:14:33.747Z,17.60
2022-09-10T02:14:49.497Z,17.60
2022-09-10T02:15:01.388Z,17.60
2022-09-10T02:15:14.034Z,17.60
2022-09-10T02:15:26.401Z,17.60
2022-09-10T02:15:38.051Z,17.60
2022-09-10T02:15:52.192Z,17.60
2022-09-10T02:16:06.258Z,17.60
2022-09-10T02:16:26.316Z,17.60
2022-09-10T02:16:38.881Z,17.60
2022-09-10T02:16:58.818Z,17.60
2022-09-10T02:17:10.515Z,17.60
2022-09-10T02:17:23.731Z,17.60
2022-09-10T02:17:36.538Z,17.60
2022-09-10T02:17:49.081Z,17.60
2022-09-10T02:18:01.315Z,17.60
2022-09-10T02:18:12.957Z,17.60
2022-09-10T02:18:24.662Z,17.60
2022-09-10T02:18:36.986Z,17.60
2022-09-10T02:18:49.594Z,17.60
2022-09-10T02:19:01.301Z,17.60
2022-09-10T02:19:13.039Z,17.60
2022-09-10T02:19:26.564Z,17.60
2022-09-10T02:19:38.412Z,17.60
2022-09-10T02:19:53.886Z,17.60
2022-09-10T02:20:07.289Z,17.60
2022-09-10T02:20:19.434Z,17.60
2022-09-10T02:20:31.210Z,17.60
2022-09-10T02:20:42.910Z,17.60
2022-09-10T02:20:55.966Z,17.60
2022-09-10T02:21:08.659Z,17.60
2022-09-10T02:21:20.336Z,17.60
2022-09-10T02:21:32.334Z,17.60
2022-09-10T02:21:44.070Z,17.60
2022-09-10T02:21:56.328Z,17.60
2022-09-10T02:22:08.120Z,17.60
2022-09-10T02:22:20.522Z,17.60
2022-09-10T02:22:33.127Z,17.60
2022-09-10T02:22:55.626Z,17.50
2022-09-10T02:23:07.399Z,17.60
2022-09-10T02:23:21.239Z,17.50
2022-09-10T02:23:39.738Z,17.60
2022-09-10T02:23:55.736Z,17.60
2022-09-10T02:24:09.989Z,17.50
2022-09-10T02:24:21.827Z,17.50
2022-09-10T02:24:33.560Z,17.50
2022-09-10T02:24:45.398Z,17.50
2022-09-10T02:24:57.254Z,17.50
2022-09-10T02:25:09.881Z,17.50
2022-09-10T02:25:21.590Z,17.50
2022-09-10T02:25:33.972Z,17.50
2022-09-10T02:25:45.978Z,17.50
2022-09-10T02:25:58.197Z,17.50
2022-09-10T02:26:10.840Z,17.50
2022-09-10T02:26:22.973Z,17.50
2022-09-10T02:26:35.090Z,17.50
2022-09-10T02:26:47.310Z,17.50
2022-09-10T02:27:00.393Z,17.50
2022-09-10T02:27:12.594Z,17.50
2022-09-10T02:27:24.477Z,17.50
2022-09-10T02:27:36.159Z,17.50
2022-09-10T02:27:49.057Z,17.50
2022-09-10T02:28:00.783Z,17.50
2022-09-10T02:28:12.494Z,17.50
2022-09-10T02:28:24.206Z,17.50
2022-09-10T02:28:36.736Z,17.50
2022-09-10T02:28:51.239Z,17.50
2022-09-10T02:29:03.021Z,17.50
2022-09-10T02:29:15.882Z,17.50
2022-09-10T02:29:27.650Z,17.50
2022-09-10T02:29:39.489Z,17.50
2022-09-10T02:29:51.177Z,17.50
2022-09-10T02:30:03.065Z,17.50
2022-09-10T02:30:16.982Z,17.50
2022-09-10T02:30:29.248Z,17.50
2022-09-10T02:30:41.053Z,17.60
2022-09-10T02:30:52.871Z,17.60
2022-09-10T02:31:04.987Z,17.60
2022-09-10T02:31:18.664Z,17.60
2022-09-10T02:31:30.536Z,17.60
2022-09-10T02:31:42.977Z,17.60
2022-09-10T02:31:54.718Z,17.60
2022-09-10T02:32:06.930Z,17.60
2022-09-10T02:32:18.641Z,17.60
2022-09-10T02:32:30.396Z,17.60
2022-09-10T02:32:42.870Z,17.60
2022-09-10T02:32:54.641Z,17.60
2022-09-10T02:33:06.611Z,17.60
2022-09-10T02:33:18.455Z,17.50
2022-09-10T02:33:31.007Z,17.50
2022-09-10T02:33:43.292Z,17.60
2022-09-10T02:33:55.030Z,17.60
2022-09-10T02:34:06.711Z,17.60
2022-09-10T02:34:18.577Z,17.60
2022-09-10T02:34:30.573Z,17.50
2022-09-10T02:34:42.277Z,17.60
2022-09-10T02:34:53.936Z,17.50
2022-09-10T02:35:06.213Z,17.50
2022-09-10T02:35:17.989Z,17.60
2022-09-10T02:35:31.109Z,17.50
2022-09-10T02:35:43.715Z,17.50
2022-09-10T02:35:55.404Z,17.50
2022-09-10T02:36:07.133Z,17.50
2022-09-10T02:36:18.849Z,17.50
2022-09-10T02:36:31.788Z,17.60
2022-09-10T02:36:43.554Z,17.60
2022-09-10T02:36:57.646Z,17.60
2022-09-10T02:37:09.408Z,17.60
2022-09-10T02:37:21.151Z,17.50
2022-09-10T02:37:32.837Z,17.50
2022-09-10T02:37:44.511Z,17.50
2022-09-10T02:37:56.771Z,17.50
2022-09-10T02:38:08.630Z,17.50
2022-09-10T02:38:21.382Z,17.50
2022-09-10T02:38:33.185Z,17.50
2022-09-10T02:38:44.861Z,17.50
2022-09-10T02:38:56.971Z,17.50
2022-09-10T02:39:08.790Z,17.50
2022-09-10T02:39:20.488Z,17.50
2022-09-10T02:39:32.305Z,17.50
2022-09-10T02:39:45.489Z,17.50
2022-09-10T02:39:57.248Z,17.50
2022-09-10T02:40:10.895Z,17.50
2022-09-10T02:40:22.619Z,17.50
2022-09-10T02:40:34.438Z,17.50
2022-09-10T02:40:48.893Z,17.50
2022-09-10T02:41:00.633Z,17.50
2022-09-10T02:41:12.423Z,17.50
2022-09-10T02:41:25.681Z,17.60
2022-09-10T02:41:39.661Z,17.60
2022-09-10T02:41:51.359Z,17.60
2022-09-10T02:42:03.133Z,17.60
2022-09-10T02:42:16.979Z,17.60
2022-09-10T02:42:28.753Z,17.60
2022-09-10T02:42:46.462Z,17.60
2022-09-10T02:42:58.174Z,17.50
2022-09-10T02:43:09.900Z,17.60
2022-09-10T02:43:21.633Z,17.60
2022-09-10T02:43:35.945Z,17.60
2022-09-10T02:43:47.589Z,17.50
2022-09-10T02:43:59.752Z,17.50
2022-09-10T02:44:11.468Z,17.50
2022-09-10T02:44:23.135Z,17.50
2022-09-10T02:44:34.902Z,17.50
2022-09-10T02:44:47.900Z,17.50
2022-09-10T02:45:00.218Z,17.50
2022-09-10T02:45:13.281Z,17.50
2022-09-10T02:45:25.338Z,17.50
2022-09-10T02:45:38.464Z,17.50
2022-09-10T02:45:50.864Z,17.50
2022-09-10T02:46:03.616Z,17.50
2022-09-10T02:46:15.754Z,17.50
2022-09-10T02:46:27.620Z,17.50
2022-09-10T02:46:39.651Z,17.50
2022-09-10T02:46:51.324Z,17.50
2022-09-10T02:47:03.061Z,17.50
2022-09-10T02:47:15.138Z,17.50
2022-09-10T02:47:27.018Z,17.50
2022-09-10T02:47:38.840Z,17.50
2022-09-10T02:47:51.057Z,17.50
2022-09-10T02:48:04.182Z,17.50
2022-09-10T02:48:15.916Z,17.50
2022-09-10T02:48:28.076Z,17.50
2022-09-10T02:48:42.462Z,17.40
2022-09-10T02:48:55.136Z,17.40
2022-09-10T02:49:06.916Z,17.40
2022-09-10T02:49:18.628Z,17.40
2022-09-10T02:49:31.703Z,17.40
2022-09-10T02:49:43.400Z,17.40
2022-09-10T02:49:55.060Z,17.40
2022-09-10T02:50:08.015Z,17.40
2022-09-10T02:50:19.720Z,17.40
2022-09-10T02:50:33.280Z,17.40
2022-09-10T02:50:45.633Z,17.40
2022-09-10T02:50:57.354Z,17.40
2022-09-10T02:51:09.043Z,17.40
2022-09-10T02:51:21.865Z,17.30
2022-09-10T02:51:33.545Z,17.30
2022-09-10T02:51:45.201Z,17.30
2022-09-10T02:51:56.935Z,17.30
2022-09-10T02:52:08.841Z,17.30
2022-09-10T02:52:22.177Z,17.30
2022-09-10T02:52:33.934Z,17.30
2022-09-10T02:52:46.224Z,17.30
2022-09-10T02:52:57.975Z,17.30
2022-09-10T02:53:09.670Z,17.30
2022-09-10T02:53:21.405Z,17.30
2022-09-10T02:53:33.161Z,17.30
2022-09-10T02:53:44.875Z,17.30
2022-09-10T02:53:56.575Z,17.30
2022-09-10T02:54:08.406Z,17.30
2022-09-10T02:54:20.131Z,17.30
2022-09-10T02:54:32.053Z,17.30
2022-09-10T02:54:44.020Z,17.30
2022-09-10T02:54:56.125Z,17.30
2022-09-10T02:55:08.472Z,17.30
2022-09-10T02:55:20.231Z,17.30
2022-09-10T02:55:32.270Z,17.30
2022-09-10T02:55:47.032Z,17.20
2022-09-10T02:55:58.804Z,17.20
2022-09-10T02:56:10.573Z,17.30
2022-09-10T02:56:23.688Z,17.30
2022-09-10T02:56:35.375Z,17.20
2022-09-10T02:56:49.851Z,17.30
2022-09-10T02:57:01.675Z,17.20
2022-09-10T02:57:13.343Z,17.20
2022-09-10T02:57:25.111Z,17.20
2022-09-10T02:57:36.819Z,17.20
2022-09-10T02:57:49.172Z,17.20
2022-09-10T02:58:00.856Z,17.20
2022-09-10T02:58:13.539Z,17.20
2022-09-10T02:58:25.297Z,17.20
2022-09-10T02:58:37.008Z,17.20
2022-09-10T02:58:48.863Z,17.20
2022-09-10T02:59:00.559Z,17.20
2022-09-10T02:59:12.873Z,17.20
2022-09-10T02:59:25.117Z,17.20
2022-09-10T02:59:37.100Z,17.20
2022-09-10T02:59:49.257Z,17.20
2022-09-10T03:00:02.386Z,17.20
2022-09-10T03:00:14.424Z,17.20
2022-09-10T03:00:26.153Z,17.20
2022-09-10T03:00:38.373Z,17.20
2022-09-10T03:00:50.127Z,17.20
2022-09-10T03:01:08.740Z,17.20
2022-09-10T03:01:21.572Z,17.20
2022-09-10T03:01:34.782Z,17.10
2022-09-10T03:01:48.330Z,17.10
2022-09-10T03:02:00.109Z,17.10
2022-09-10T03:02:11.876Z,17.10
2022-09-10T03:02:23.669Z,17.10
2022-09-10T03:02:36.725Z,17.10
2022-09-10T03:02:48.413Z,17.10
2022-09-10T03:03:03.036Z,17.10
2022-09-10T03:03:15.025Z,17.10
2022-09-10T03:03:28.848Z,17.10
2022-09-10T03:03:40.930Z,17.10
2022-09-10T03:03:54.965Z,17.10
2022-09-10T03:04:06.779Z,17.00
2022-09-10T03:04:18.441Z,17.10
2022-09-10T03:04:30.128Z,17.10
2022-09-10T03:04:41.828Z,17.10
2022-09-10T03:04:53.492Z,17.10
2022-09-10T03:05:05.597Z,17.00
2022-09-10T03:05:17.713Z,17.10
2022-09-10T03:05:29.595Z,17.10
2022-09-10T03:05:41.607Z,17.00
2022-09-10T03:05:53.257Z,17.00
2022-09-10T03:06:05.220Z,17.00
2022-09-10T03:06:17.004Z,17.00
2022-09-10T03:06:28.784Z,17.00
2022-09-10T03:06:41.100Z,17.00
2022-09-10T03:06:54.918Z,17.00
2022-09-10T03:07:06.609Z,17.00
2022-09-10T03:07:20.130Z,17.00
2022-09-10T03:07:32.270Z,17.10
2022-09-10T03:07:44.807Z,17.10
2022-09-10T03:07:57.174Z,17.00
2022-09-10T03:08:09.219Z,17.10
2022-09-10T03:08:20.925Z,17.00
2022-09-10T03:08:32.743Z,17.00
2022-09-10T03:08:44.460Z,17.10
2022-09-10T03:08:57.474Z,17.10
2022-09-10T03:09:09.750Z,17.10
2022-09-10T03:09:22.555Z,17.00
2022-09-10T03:09:35.643Z,17.10
2022-09-10T03:09:47.559Z,17.00
2022-09-10T03:09:59.315Z,17.10
2022-09-10T03:10:10.992Z,17.00
2022-09-10T03:10:24.041Z,17.10
2022-09-10T03:10:35.753Z,17.10
2022-09-10T03:10:47.437Z,17.00
2022-09-10T03:10:59.526Z,17.00
2022-09-10T03:11:13.063Z,17.00
2022-09-10T03:11:25.308Z,17.10
2022-09-10T03:11:40.124Z,17.10
2022-09-10T03:11:52.504Z,17.00
2022-09-10T03:12:04.821Z,17.00
2022-09-10T03:12:16.783Z,17.00
2022-09-10T03:12:28.474Z,17.10
2022-09-10T03:12:40.828Z,17.00
2022-09-10T03:12:53.186Z,17.10
2022-09-10T03:13:04.955Z,17.10
2022-09-10T03:13:16.818Z,17.00
2022-09-10T03:13:28.618Z,17.10
2022-09-10T03:13:40.446Z,17.10
2022-09-10T03:13:52.212Z,17.10
2022-09-10T03:14:03.906Z,17.10
2022-09-10T03:14:20.198Z,17.10
2022-09-10T03:14:32.286Z,17.10
2022-09-10T03:14:43.963Z,17.10
2022-09-10T03:14:58.071Z,17.10
2022-09-10T03:15:10.231Z,17.10
2022-09-10T03:15:22.861Z,17.10
2022-09-10T03:15:34.587Z,17.10
2022-09-10T03:15:46.349Z,17.10
2022-09-10T03:16:04.073Z,17.10
2022-09-10T03:16:16.370Z,17.10
2022-09-10T03:16:28.484Z,17.10
2022-09-10T03:16:40.959Z,17.10
2022-09-10T03:16:52.662Z,17.10
2022-09-10T03:17:05.117Z,17.10
2022-09-10T03:17:16.890Z,17.10
2022-09-10T03:17:28.589Z,17.10
2022-09-10T03:17:40.290Z,17.00
2022-09-10T03:17:52.193Z,17.00
2022-09-10T03:18:04.180Z,17.10
2022-09-10T03:18:15.891Z,17.10
2022-09-10T03:18:27.973Z,17.10
2022-09-10T03:18:42.543Z,17.10
2022-09-10T03:18:54.496Z,17.10
2022-09-10T03:19:06.200Z,17.10
2022-09-10T03:19:17.869Z,17.10
2022-09-10T03:19:29.766Z,17.10
2022-09-10T03:19:41.526Z,17.10
2022-09-10T03:19:53.276Z,17.10
2022-09-10T03:20:05.446Z,17.10
2022-09-10T03:20:18.211Z,17.10
2022-09-10T03:20:31.203Z,17.10
2022-09-10T03:20:42.871Z,17.10
2022-09-10T03:20:54.625Z,17.10
2022-09-10T03:21:16.408Z,17.10